Time;durP1;ratioP1;P1;durP2;ratioP2;P2;SDS_P1;SDS_P2;PMS_P1;PMS_P2;Temp;Humidity;BMP_temperature;BMP_pressure;BME280_temperature;BME280_humidity;BME280_pressure;Samples;Min_cycle;Max_cycle;Signal;HPM_P1;HPM_P2
2022/04/23 00:01:30;;;;;;;;;;;;;;;;;;5037097;28;20000;-25
2022/04/23 00:03:56;;;;;;;;;;;;;;;;;;5037010;28;19964;-25
2022/04/23 00:06:22;;;;;;;;;;;;;;;;;;5037045;28;20308;-25
2022/04/23 00:08:48;;;;;;;;;;;;;;;;;;5036973;28;19921;-25
2022/04/23 00:11:14;;;;;;;;;;;;;;;;;;5037475;28;19917;-25
2022/04/23 00:13:40;;;;;;;;;;;;;;;;;;5036782;28;20008;-25
2022/04/23 00:16:06;;;;;;;;;;;;;;;;;;5037066;28;19909;-25
2022/04/23 00:18:32;;;;;;;;;;;;;;;;;;5037027;28;19924;-25
2022/04/23 00:20:58;;;;;;;;;;;;;;;;;;5036722;28;19913;-25
2022/04/23 00:23:25;;;;;;;;;;;;;;;;;;5036714;28;19921;-25
2022/04/23 00:25:52;;;;;;;;;;;;;;;;;;5036888;28;19909;-25
2022/04/23 00:28:18;;;;;;;;;;;;;;;;;;5036506;28;19913;-25
2022/04/23 00:30:46;;;;;;;;;;;;;;;;;;5035668;28;19913;-25
2022/04/23 00:33:12;;;;;;;;;;;;;;;;;;5036418;28;19913;-25
2022/04/23 00:35:38;;;;;;;;;;;;;;;;;;5036706;28;20008;-25
2022/04/23 00:38:05;;;;;;;;;;;;;;;;;;5036950;28;19924;-25
2022/04/23 00:40:31;;;;;;;;;;;;;;;;;;5036643;28;19924;-25
2022/04/23 00:42:58;;;;;;;;;;;;;;;;;;5036292;28;20287;-25
2022/04/23 00:45:24;;;;;;;;;;;;;;;;;;5036491;28;19971;-25
2022/04/23 00:47:50;;;;;;;;;;;;;;;;;;5036231;28;20287;-25
2022/04/23 00:50:18;;;;;;;;;;;;;;;;;;5036160;28;19913;-25
2022/04/23 00:52:44;;;;;;;;;;;;;;;;;;5036018;28;20372;-25
2022/04/23 00:55:09;;;;;;;;;;;;;;;;;;5036343;28;20003;-25
2022/04/23 00:57:35;;;;;;;;;;;;;;;;;;5036037;28;19998;-25
2022/04/23 01:00:03;;;;;;;;;;;;;;;;;;5036267;28;19923;-25
2022/04/23 01:02:29;;;;;;;;;;;;;;;;;;5036152;28;19913;-25
2022/04/23 01:04:55;;;;;;;;;;;;;;;;;;5035734;28;19921;-25
2022/04/23 01:07:21;;;;;;;;;;;;;;;;;;5036579;28;20004;-25
2022/04/23 01:09:47;;;;;;;;;;;;;;;;;;5036077;28;19945;-25
2022/04/23 01:12:13;;;;;;;;;;;;;;;;;;5035979;28;19910;-25
2022/04/23 01:14:39;;;;;;;;;;;;;;;;;;5035814;28;19909;-25
2022/04/23 01:17:05;;;;;;;;;;;;;;;;;;5036243;28;19909;-25
2022/04/23 01:19:32;;;;;;;;;;;;;;;;;;5035696;28;19932;-25
2022/04/23 01:21:58;;;;;;;;;;;;;;;;;;5035829;28;19955;-25
2022/04/23 01:24:24;;;;;;;;;;;;;;;;;;5035825;28;19952;-25
2022/04/23 01:26:49;;;;;;;;;;;;;;;;;;5035815;28;19917;-25
2022/04/23 01:29:17;;;;;;;;;;;;;;;;;;5035747;28;19966;-25
2022/04/23 01:31:43;;;;;;;;;;;;;;;;;;5036000;28;20403;-25
2022/04/23 01:34:09;;;;;;;;;;;;;;;;;;5035397;28;19910;-25
2022/04/23 01:36:35;;;;;;;;;;;;;;;;;;5035360;28;20408;-25
2022/04/23 01:39:01;;;;;;;;;;;;;;;;;;5035954;28;19914;-25
2022/04/23 01:41:27;;;;;;;;;;;;;;;;;;5035204;28;20008;-25
2022/04/23 01:43:53;;;;;;;;;;;;;;;;;;5035142;28;19917;-25
2022/04/23 01:46:20;;;;;;;;;;;;;;;;;;5035858;28;19936;-25
2022/04/23 01:48:46;;;;;;;;;;;;;;;;;;5035181;28;19971;-26
2022/04/23 01:51:12;;;;;;;;;;;;;;;;;;5035224;28;19909;-25
2022/04/23 01:53:38;;;;;;;;;;;;;;;;;;5035131;28;19913;-25
2022/04/23 01:56:04;;;;;;;;;;;;;;;;;;5035430;28;19987;-25
2022/04/23 01:58:30;;;;;;;;;;;;;;;;;;5035105;28;19996;-25
2022/04/23 02:00:58;;;;;;;;;;;;;;;;;;5035657;28;19955;-25
2022/04/23 02:03:24;;;;;;;;;;;;;;;;;;5034905;28;19932;-25
2022/04/23 02:05:50;;;;;;;;;;;;;;;;;;5035631;28;19980;-25
2022/04/23 02:08:16;;;;;;;;;;;;;;;;;;5034953;28;20404;-25
2022/04/23 02:10:42;;;;;;;;;;;;;;;;;;5035535;28;19916;-25
2022/04/23 02:13:08;;;;;;;;;;;;;;;;;;5034867;28;19913;-25
2022/04/23 02:15:34;;;;;;;;;;;;;;;;;;5035516;28;20043;-25
2022/04/23 02:18:00;;;;;;;;;;;;;;;;;;5035150;28;19924;-25
2022/04/23 02:20:28;;;;;;;;;;;;;;;;;;5034938;28;20333;-25
2022/04/23 02:22:54;;;;;;;;;;;;;;;;;;5034674;28;19917;-25
2022/04/23 02:25:20;;;;;;;;;;;;;;;;;;5035156;28;19913;-25
2022/04/23 02:27:46;;;;;;;;;;;;;;;;;;5035111;28;19921;-25
2022/04/23 02:30:12;;;;;;;;;;;;;;;;;;5034824;28;19920;-25
2022/04/23 02:32:38;;;;;;;;;;;;;;;;;;5034720;28;19909;-25
2022/04/23 02:35:05;;;;;;;;;;;;;;;;;;5034807;28;19924;-25
2022/04/23 02:37:34;;;;;;;;;;;;;;;;;;5034994;28;19913;-25
2022/04/23 02:40:00;;;;;;;;;;;;;;;;;;5034993;28;19940;-25
2022/04/23 02:42:26;;;;;;;;;;;;;;;;;;5035069;28;19909;-25
2022/04/23 02:44:52;;;;;;;;;;;;;;;;;;5034678;28;19924;-25
2022/04/23 02:47:18;;;;;;;;;;;;;;;;;;5017246;28;19913;-25
2022/04/23 02:49:44;;;;;;;;;;;;;;;;;;5034736;28;19913;-25
2022/04/23 02:52:10;;;;;;;;;;;;;;;;;;5034491;28;19920;-25
2022/04/23 02:54:38;;;;;;;;;;;;;;;;;;5037603;28;20007;-25
2022/04/23 02:57:04;;;;;;;;;;;;;;;;;;5038921;28;19921;-25
2022/04/23 02:59:30;;;;;;;;;;;;;;;;;;5038327;28;20425;-25
2022/04/23 03:01:56;;;;;;;;;;;;;;;;;;5038404;28;19913;-25
2022/04/23 03:04:22;;;;;;;;;;;;;;;;;;5038142;28;19921;-25
2022/04/23 03:06:48;;;;;;;;;;;;;;;;;;5038079;28;20336;-26
2022/04/23 03:09:14;;;;;;;;;;;;;;;;;;5038101;28;19940;-26
2022/04/23 03:11:40;;;;;;;;;;;;;;;;;;5038149;28;19941;-26
2022/04/23 03:14:06;;;;;;;;;;;;;;;;;;5038462;28;20354;-26
2022/04/23 03:16:32;;;;;;;;;;;;;;;;;;5038282;28;19909;-26
2022/04/23 03:18:58;;;;;;;;;;;;;;;;;;5038207;28;19924;-24
2022/04/23 03:21:24;;;;;;;;;;;;;;;;;;5038160;28;19917;-26
2022/04/23 03:23:50;;;;;;;;;;;;;;;;;;5037750;28;19917;-26
2022/04/23 03:26:16;;;;;;;;;;;;;;;;;;5037855;28;19914;-26
2022/04/23 03:28:42;;;;;;;;;;;;;;;;;;5037973;28;19913;-26
2022/04/23 03:31:11;;;;;;;;;;;;;;;;;;5038276;28;20343;-26
2022/04/23 03:33:37;;;;;;;;;;;;;;;;;;5037606;28;19924;-26
2022/04/23 03:36:03;;;;;;;;;;;;;;;;;;5037653;28;19910;-26
2022/04/23 03:38:29;;;;;;;;;;;;;;;;;;5037820;28;20244;-26
2022/04/23 03:40:55;;;;;;;;;;;;;;;;;;5037560;28;19909;-26
2022/04/23 03:43:21;;;;;;;;;;;;;;;;;;5037564;28;19917;-26
2022/04/23 03:45:47;;;;;;;;;;;;;;;;;;5037463;28;19991;-26
2022/04/23 03:48:14;;;;;;;;;;;;;;;;;;5037931;28;19960;-26
2022/04/23 03:50:40;;;;;;;;;;;;;;;;;;5037604;28;19909;-24
2022/04/23 03:53:06;;;;;;;;;;;;;;;;;;5037415;28;19924;-26
2022/04/23 03:55:32;;;;;;;;;;;;;;;;;;5037333;28;19967;-26
2022/04/23 03:57:57;;;;;;;;;;;;;;;;;;5037209;28;19913;-26
2022/04/23 04:00:24;;;;;;;;;;;;;;;;;;5037442;28;19909;-26
2022/04/23 04:02:50;;;;;;;;;;;;;;;;;;5037238;28;19916;-25
2022/04/23 04:05:16;;;;;;;;;;;;;;;;;;5036910;28;19975;-26
2022/04/23 04:07:42;;;;;;;;;;;;;;;;;;5037765;28;19914;-24
2022/04/23 04:10:08;;;;;;;;;;;;;;;;;;5036892;28;19967;-24
2022/04/23 04:12:34;;;;;;;;;;;;;;;;;;5036783;28;19951;-24
2022/04/23 04:15:00;;;;;;;;;;;;;;;;;;5037121;28;19910;-24
2022/04/23 04:17:26;;;;;;;;;;;;;;;;;;5036715;28;19913;-24
2022/04/23 04:19:53;;;;;;;;;;;;;;;;;;5036678;28;19909;-24
2022/04/23 04:22:21;;;;;;;;;;;;;;;;;;5036591;28;19925;-24
2022/04/23 04:24:47;;;;;;;;;;;;;;;;;;5036891;28;19913;-24
2022/04/23 04:27:13;;;;;;;;;;;;;;;;;;5036881;28;20390;-24
2022/04/23 04:29:39;;;;;;;;;;;;;;;;;;5019141;28;19962;-24
2022/04/23 04:32:07;;;;;;;;;;;;;;;;;;5036682;28;19913;-24
2022/04/23 04:34:33;;;;;;;;;;;;;;;;;;5036446;28;20356;-24
2022/04/23 04:36:59;;;;;;;;;;;;;;;;;;5036432;28;19913;-24
2022/04/23 04:39:25;;;;;;;;;;;;;;;;;;5036454;28;20355;-24
2022/04/23 04:41:51;;;;;;;;;;;;;;;;;;5036287;28;20287;-24
2022/04/23 04:44:18;;;;;;;;;;;;;;;;;;5036217;28;19913;-24
2022/04/23 04:46:44;;;;;;;;;;;;;;;;;;5036859;28;20011;-24
2022/04/23 04:49:10;;;;;;;;;;;;;;;;;;5036260;28;20353;-25
2022/04/23 04:51:36;;;;;;;;;;;;;;;;;;5036462;28;19943;-24
2022/04/23 04:54:02;;;;;;;;;;;;;;;;;;5036309;28;20020;-24
2022/04/23 04:56:28;;;;;;;;;;;;;;;;;;5019529;28;20359;-24
2022/04/23 04:58:54;;;;;;;;;;;;;;;;;;5036259;28;19917;-27
2022/04/23 05:01:20;;;;;;;;;;;;;;;;;;5036338;28;19913;-25
2022/04/23 05:03:46;;;;;;;;;;;;;;;;;;5035664;28;19929;-25
2022/04/23 05:06:12;;;;;;;;;;;;;;;;;;5035864;28;19913;-25
2022/04/23 05:08:38;;;;;;;;;;;;;;;;;;5035923;28;19982;-25
2022/04/23 05:11:04;;;;;;;;;;;;;;;;;;5035833;28;19917;-25
2022/04/23 05:13:30;;;;;;;;;;;;;;;;;;5035807;28;20255;-25
2022/04/23 05:15:56;;;;;;;;;;;;;;;;;;5035856;28;19921;-25
2022/04/23 05:18:22;;;;;;;;;;;;;;;;;;5036266;28;20307;-25
2022/04/23 05:20:48;;;;;;;;;;;;;;;;;;5035621;28;19924;-25
2022/04/23 05:23:14;;;;;;;;;;;;;;;;;;5035761;28;19917;-24
2022/04/23 05:25:40;;;;;;;;;;;;;;;;;;5035595;28;19913;-25
2022/04/23 05:28:07;;;;;;;;;;;;;;;;;;5035569;28;19920;-25
2022/04/23 05:30:33;;;;;;;;;;;;;;;;;;5035542;28;19913;-25
2022/04/23 05:32:59;;;;;;;;;;;;;;;;;;5035388;28;19998;-25
2022/04/23 05:35:25;;;;;;;;;;;;;;;;;;5035460;28;20005;-25
2022/04/23 05:37:51;;;;;;;;;;;;;;;;;;5035356;28;19913;-25
2022/04/23 05:40:17;;;;;;;;;;;;;;;;;;5035384;28;19909;-25
2022/04/23 05:42:43;;;;;;;;;;;;;;;;;;5035234;28;19913;-25
2022/04/23 05:45:09;;;;;;;;;;;;;;;;;;5035574;28;19967;-25
2022/04/23 05:47:35;;;;;;;;;;;;;;;;;;5017917;28;19959;-25
2022/04/23 05:50:01;;;;;;;;;;;;;;;;;;5035479;28;19909;-25
2022/04/23 05:52:27;;;;;;;;;;;;;;;;;;5035098;28;19919;-25
2022/04/23 05:54:53;;;;;;;;;;;;;;;;;;5035174;28;20360;-25
2022/04/23 05:57:19;;;;;;;;;;;;;;;;;;5035686;28;20008;-25
2022/04/23 05:59:45;;;;;;;;;;;;;;;;;;5035424;28;19963;-25
2022/04/23 06:02:13;;;;;;;;;;;;;;;;;;5035314;28;20363;-25
2022/04/23 06:04:39;;;;;;;;;;;;;;;;;;5034779;28;20373;-26
2022/04/23 06:07:05;;;;;;;;;;;;;;;;;;5035589;28;19995;-26
2022/04/23 06:09:31;;;;;;;;;;;;;;;;;;5034966;28;19910;-26
2022/04/23 06:11:57;;;;;;;;;;;;;;;;;;5017453;28;19913;-25
2022/04/23 06:14:23;;;;;;;;;;;;;;;;;;5017594;28;19916;-25
2022/04/23 06:16:49;;;;;;;;;;;;;;;;;;5035497;28;19924;-26
2022/04/23 06:19:15;;;;;;;;;;;;;;;;;;5035205;28;19909;-25
2022/04/23 06:21:41;;;;;;;;;;;;;;;;;;5035520;28;19913;-25
2022/04/23 06:24:07;;;;;;;;;;;;;;;;;;5034751;28;19928;-26
2022/04/23 06:26:33;;;;;;;;;;;;;;;;;;5035427;28;19913;-25
2022/04/23 06:28:59;;;;;;;;;;;;;;;;;;5037309;28;19909;-26
2022/04/23 06:31:25;;;;;;;;;;;;;;;;;;5038879;28;19913;-25
2022/04/23 06:33:51;;;;;;;;;;;;;;;;;;5039273;28;19936;-25
2022/04/23 06:36:17;;;;;;;;;;;;;;;;;;5021301;28;20324;-25
2022/04/23 06:38:43;;;;;;;;;;;;;;;;;;5038669;28;19913;-25
2022/04/23 06:41:09;;;;;;;;;;;;;;;;;;5038642;28;19909;-25
2022/04/23 06:43:35;;;;;;;;;;;;;;;;;;5038467;28;19936;-25
2022/04/23 06:46:01;;;;;;;;;;;;;;;;;;5038585;28;19921;-25
2022/04/23 06:48:27;;;;;;;;;;;;;;;;;;5039056;28;19913;-25
2022/04/23 06:50:53;;;;;;;;;;;;;;;;;;5038485;28;20364;-25
2022/04/23 06:53:19;;;;;;;;;;;;;;;;;;5038650;28;20352;-25
2022/04/23 06:55:45;;;;;;;;;;;;;;;;;;5038386;28;19967;-25
2022/04/23 06:58:11;;;;;;;;;;;;;;;;;;5038306;28;19920;-25
2022/04/23 07:00:41;;;;;;;;;;;;;;;;;;5021423;28;19909;-25
2022/04/23 07:03:07;;;;;;;;;;;;;;;;;;5038412;28;20247;-25
2022/04/23 07:05:33;;;;;;;;;;;;;;;;;;5038505;28;19912;-25
2022/04/23 07:07:59;;;;;;;;;;;;;;;;;;5038051;28;19970;-25
2022/04/23 07:10:26;;;;;;;;;;;;;;;;;;5038360;28;20007;-25
2022/04/23 07:12:53;;;;;;;;;;;;;;;;;;5038241;28;19924;-25
2022/04/23 07:15:19;;;;;;;;;;;;;;;;;;5038571;28;19988;-25
2022/04/23 07:17:45;;;;;;;;;;;;;;;;;;5038211;28;19924;-25
2022/04/23 07:20:11;;;;;;;;;;;;;;;;;;5037957;28;19909;-26
2022/04/23 07:22:37;;;;;;;;;;;;;;;;;;5037990;28;19924;-25
2022/04/23 07:25:03;;;;;;;;;;;;;;;;;;5038308;28;19913;-25
2022/04/23 07:27:29;;;;;;;;;;;;;;;;;;5038050;28;19913;-25
2022/04/23 07:29:55;;;;;;;;;;;;;;;;;;5037652;28;19920;-25
2022/04/23 07:32:21;;;;;;;;;;;;;;;;;;5038071;28;19921;-25
2022/04/23 07:37:33;;;;;;;;;;;;;;;;;;5037912;28;19967;-25
2022/04/23 07:39:59;;;;;;;;;;;;;;;;;;5037135;28;19913;-25
2022/04/23 07:42:26;;;;;;;;;;;;;;;;;;5037445;28;19923;-25
2022/04/23 07:44:52;;;;;;;;;;;;;;;;;;5037360;28;19920;-25
2022/04/23 07:47:18;;;;;;;;;;;;;;;;;;5037958;28;19913;-25
2022/04/23 07:49:44;;;;;;;;;;;;;;;;;;5037648;28;20229;-25
2022/04/23 07:52:10;;;;;;;;;;;;;;;;;;5037258;28;19913;-25
2022/04/23 07:54:38;;;;;;;;;;;;;;;;;;5037330;28;19913;-25
2022/04/23 07:57:06;;;;;;;;;;;;;;;;;;5019815;28;19917;-25
2022/04/23 07:59:32;;;;;;;;;;;;;;;;;;5037445;28;19913;-25
2022/04/23 08:01:58;;;;;;;;;;;;;;;;;;5037334;28;20371;-26
2022/04/23 08:04:24;;;;;;;;;;;;;;;;;;5036843;28;19927;-25
2022/04/23 08:06:50;;;;;;;;;;;;;;;;;;5037581;28;19963;-25
2022/04/23 08:09:16;;;;;;;;;;;;;;;;;;5037045;28;20323;-25
2022/04/23 08:11:42;;;;;;;;;;;;;;;;;;5037024;28;19959;-25
2022/04/23 08:14:08;;;;;;;;;;;;;;;;;;5036764;28;19964;-25
2022/04/23 08:16:34;;;;;;;;;;;;;;;;;;5037187;28;19921;-26
2022/04/23 08:19:00;;;;;;;;;;;;;;;;;;5037082;28;20252;-25
2022/04/23 08:21:26;;;;;;;;;;;;;;;;;;5037067;28;19932;-25
2022/04/23 08:23:52;;;;;;;;;;;;;;;;;;5036571;28;19917;-25
2022/04/23 08:26:18;;;;;;;;;;;;;;;;;;5036777;28;20054;-25
2022/04/23 08:31:33;;;;;;;;;;;;;;;;;;5008787;28;19912;-26
2022/04/23 08:33:59;;;;;;;;;;;;;;;;;;5036775;28;19931;-26
2022/04/23 08:36:26;;;;;;;;;;;;;;;;;;5036548;28;19975;-26
2022/04/23 08:38:55;;;;;;;;;;;;;;;;;;5036695;28;20256;-25
2022/04/23 08:41:25;;;;;;;;;;;;;;;;;;5036695;28;20039;-25
2022/04/23 08:43:51;;;;;;;;;;;;;;;;;;5036306;28;19952;-25
2022/04/23 08:46:17;;;;;;;;;;;;;;;;;;5036338;28;19916;-25
2022/04/23 08:48:43;;;;;;;;;;;;;;;;;;5036208;28;19957;-25
2022/04/23 08:51:10;;;;;;;;;;;;;;;;;;5035522;28;19920;-25
2022/04/23 08:53:36;;;;;;;;;;;;;;;;;;5036030;28;19949;-25
2022/04/23 08:56:02;;;;;;;;;;;;;;;;;;5036477;28;20004;-25
2022/04/23 08:58:29;;;;;;;;;;;;;;;;;;5036098;28;20003;-25
2022/04/23 09:00:55;;;;;;;;;;;;;;;;;;5036040;28;19909;-25
2022/04/23 09:03:21;;;;;;;;;;;;;;;;;;5035685;28;19921;-26
2022/04/23 09:05:47;;;;;;;;;;;;;;;;;;5036535;28;19913;-25
2022/04/23 09:08:13;;;;;;;;;;;;;;;;;;5035897;28;19920;-25
2022/04/23 09:10:39;;;;;;;;;;;;;;;;;;5035853;28;19924;-25
2022/04/23 09:13:06;;;;;;;;;;;;;;;;;;5017629;28;20133;-25
2022/04/23 09:23:46;;;;;;;;;;;;;;;;;;5035553;28;19924;-22
2022/04/23 09:26:12;;;;;;;;;;;;;;;;;;5036133;28;20363;-21
2022/04/23 09:28:38;;;;;;;;;;;;;;;;;;5035541;28;19913;-21
2022/04/23 09:31:04;;;;;;;;;;;;;;;;;;5035516;28;19928;-22
2022/04/23 09:33:31;;;;;;;;;;;;;;;;;;5035441;28;19976;-24
2022/04/23 09:35:57;;;;;;;;;;;;;;;;;;5035348;28;19913;-21
2022/04/23 09:38:23;;;;;;;;;;;;;;;;;;5035432;28;19936;-21
2022/04/23 09:40:49;;;;;;;;;;;;;;;;;;5035343;28;19925;-22
2022/04/23 09:43:15;;;;;;;;;;;;;;;;;;5035453;28;19917;-22
2022/04/23 09:45:42;;;;;;;;;;;;;;;;;;5035584;28;19909;-22
2022/04/23 09:48:08;;;;;;;;;;;;;;;;;;5035260;28;19924;-20
2022/04/23 09:50:33;;;;;;;;;;;;;;;;;;5035563;28;20008;-23
2022/04/23 09:52:59;;;;;;;;;;;;;;;;;;5035685;28;19913;-24
2022/04/23 09:55:26;;;;;;;;;;;;;;;;;;5035213;28;19966;-21
2022/04/23 09:57:52;;;;;;;;;;;;;;;;;;5035200;28;19953;-21
2022/04/23 10:00:18;;;;;;;;;;;;;;;;;;5035130;28;19909;-24
2022/04/23 10:02:44;;;;;;;;;;;;;;;;;;5034948;28;20379;-21
2022/04/23 10:05:10;;;;;;;;;;;;;;;;;;5034860;28;19964;-26
2022/04/23 10:07:37;;;;;;;;;;;;;;;;;;5035312;28;19917;-22
2022/04/23 10:10:03;;;;;;;;;;;;;;;;;;5034961;28;19971;-22
2022/04/23 10:12:29;;;;;;;;;;;;;;;;;;5034953;28;20285;-21
2022/04/23 10:14:55;;;;;;;;;;;;;;;;;;5035264;28;19951;-26
2022/04/23 10:17:22;;;;;;;;;;;;;;;;;;5034959;28;19913;-21
2022/04/23 10:19:48;;;;;;;;;;;;;;;;;;5035012;28;19909;-21
2022/04/23 10:22:14;;;;;;;;;;;;;;;;;;5035135;28;20248;-21
2022/04/23 10:24:40;;;;;;;;;;;;;;;;;;5034871;28;19920;-22
2022/04/23 10:27:10;;;;;;;;;;;;;;;;;;5035426;28;19988;-22
2022/04/23 10:29:36;;;;;;;;;;;;;;;;;;5035122;28;19909;-20
2022/04/23 10:32:02;;;;;;;;;;;;;;;;;;5034843;28;20348;-27
2022/04/23 10:34:28;;;;;;;;;;;;;;;;;;5034910;28;19913;-22
2022/04/23 10:36:54;;;;;;;;;;;;;;;;;;5035060;28;20023;-21
2022/04/23 10:39:21;;;;;;;;;;;;;;;;;;5035122;28;19909;-21
2022/04/23 10:41:47;;;;;;;;;;;;;;;;;;5035007;28;19913;-26
2022/04/23 10:44:13;;;;;;;;;;;;;;;;;;5034585;28;20348;-24
2022/04/23 10:46:45;;;;;;;;;;;;;;;;;;5034804;28;19910;-26
2022/04/23 10:49:13;;;;;;;;;;;;;;;;;;5034743;28;19924;-21
2022/04/23 10:51:39;;;;;;;;;;;;;;;;;;5034623;28;19917;-22
2022/04/23 10:54:06;;;;;;;;;;;;;;;;;;5034579;28;19913;-21
2022/04/23 10:56:32;;;;;;;;;;;;;;;;;;5034617;28;19921;-22
2022/04/23 10:58:58;;;;;;;;;;;;;;;;;;5034545;28;19924;-22
2022/04/23 11:01:24;;;;;;;;;;;;;;;;;;5034936;28;19909;-22
2022/04/23 11:03:49;;;;;;;;;;;;;;;;;;5034207;28;19921;-22
2022/04/23 11:14:30;;;;;;;;;;;;;;;;;;5036010;28;19924;-22
2022/04/23 11:16:56;;;;;;;;;;;;;;;;;;5038008;28;19920;-22
2022/04/23 11:19:22;;;;;;;;;;;;;;;;;;5020571;28;19909;-21
2022/04/23 11:21:48;;;;;;;;;;;;;;;;;;5038106;28;20352;-24
2022/04/23 11:24:14;;;;;;;;;;;;;;;;;;5037753;28;20007;-24
2022/04/23 11:26:40;;;;;;;;;;;;;;;;;;5038121;28;19914;-22
2022/04/23 11:29:06;;;;;;;;;;;;;;;;;;5037757;28;19909;-23
2022/04/23 11:31:32;;;;;;;;;;;;;;;;;;5020424;28;19917;-24
2022/04/23 11:33:58;;;;;;;;;;;;;;;;;;5037612;28;19913;-23
2022/04/23 11:36:24;;;;;;;;;;;;;;;;;;5037707;28;19913;-24
2022/04/23 11:38:50;;;;;;;;;;;;;;;;;;5037589;28;20044;-22
2022/04/23 11:41:16;;;;;;;;;;;;;;;;;;5037611;28;20320;-22
2022/04/23 11:43:42;;;;;;;;;;;;;;;;;;5037400;28;19940;-23
2022/04/23 11:46:08;;;;;;;;;;;;;;;;;;5037776;28;19909;-23
2022/04/23 11:48:34;;;;;;;;;;;;;;;;;;5038012;28;19923;-26
2022/04/23 11:51:00;;;;;;;;;;;;;;;;;;5038177;28;19916;-22
2022/04/23 11:53:26;;;;;;;;;;;;;;;;;;5037281;28;19913;-22
2022/04/23 11:55:52;;;;;;;;;;;;;;;;;;5037616;28;20229;-22
2022/04/23 11:58:18;;;;;;;;;;;;;;;;;;5037810;28;19913;-22
2022/04/23 12:00:44;;;;;;;;;;;;;;;;;;5037476;28;19913;-22
2022/04/23 12:03:10;;;;;;;;;;;;;;;;;;5036850;28;20267;-22
2022/04/23 12:05:36;;;;;;;;;;;;;;;;;;5037159;28;20008;-24
2022/04/23 12:08:02;;;;;;;;;;;;;;;;;;5037077;28;19913;-23
2022/04/23 12:10:29;;;;;;;;;;;;;;;;;;5037313;28;19913;-26
2022/04/23 12:12:56;;;;;;;;;;;;;;;;;;5036868;28;19917;-23
2022/04/23 12:15:22;;;;;;;;;;;;;;;;;;5036961;28;19909;-22
2022/04/23 12:17:48;;;;;;;;;;;;;;;;;;5037167;28;19913;-23
2022/04/23 12:20:14;;;;;;;;;;;;;;;;;;5036851;28;20280;-23
2022/04/23 12:22:40;;;;;;;;;;;;;;;;;;5037138;28;19913;-23
2022/04/23 12:25:07;;;;;;;;;;;;;;;;;;5036198;28;20366;-24
2022/04/23 12:27:33;;;;;;;;;;;;;;;;;;5036320;28;20244;-22
2022/04/23 12:40:58;;;;;;;;;;;;;;;;;;5036833;28;19924;-23
2022/04/23 12:43:24;;;;;;;;;;;;;;;;;;5018801;28;19920;-25
2022/04/23 12:45:50;;;;;;;;;;;;;;;;;;5036330;28;19910;-22
2022/04/23 12:48:16;;;;;;;;;;;;;;;;;;5036316;28;19919;-23
2022/04/23 12:50:44;;;;;;;;;;;;;;;;;;5018895;28;20299;-22
2022/04/23 12:53:11;;;;;;;;;;;;;;;;;;5036088;28;19957;-23
2022/04/23 12:55:37;;;;;;;;;;;;;;;;;;5036488;28;19909;-24
2022/04/23 12:58:03;;;;;;;;;;;;;;;;;;5036372;28;19974;-24
2022/04/23 13:00:29;;;;;;;;;;;;;;;;;;5036108;28;19917;-22
2022/04/23 13:02:58;;;;;;;;;;;;;;;;;;5035845;28;19913;-22
2022/04/23 13:05:24;;;;;;;;;;;;;;;;;;5035804;28;19925;-22
2022/04/23 13:10:35;;;;;;;;;;;;;;;;;;5036214;28;19928;-22
2022/04/23 13:13:01;;;;;;;;;;;;;;;;;;5035801;28;19914;-22
2022/04/23 13:15:27;;;;;;;;;;;;;;;;;;5035803;28;19913;-23
2022/04/23 13:17:53;;;;;;;;;;;;;;;;;;5035703;28;19952;-28
2022/04/23 13:20:20;;;;;;;;;;;;;;;;;;5018326;28;19920;-26
2022/04/23 13:22:46;;;;;;;;;;;;;;;;;;5035617;28;19967;-24
2022/04/23 13:25:13;;;;;;;;;;;;;;;;;;5035606;28;19967;-23
2022/04/23 13:27:39;;;;;;;;;;;;;;;;;;5035873;28;19913;-22
2022/04/23 13:30:05;;;;;;;;;;;;;;;;;;5036124;28;19909;-22
2022/04/23 13:32:35;;;;;;;;;;;;;;;;;;5035838;28;19924;-23
2022/04/23 13:35:01;;;;;;;;;;;;;;;;;;5035759;28;19974;-22
2022/04/23 13:37:28;;;;;;;;;;;;;;;;;;5035098;28;20252;-25
2022/04/23 13:39:53;;;;;;;;;;;;;;;;;;5035959;28;20248;-21
2022/04/23 13:42:20;;;;;;;;;;;;;;;;;;5035283;28;19913;-24
2022/04/23 13:44:46;;;;;;;;;;;;;;;;;;5017935;28;20006;-22
2022/04/23 13:47:12;;;;;;;;;;;;;;;;;;5035588;28;20253;-23
2022/04/23 13:49:38;;;;;;;;;;;;;;;;;;5035887;28;19917;-22
2022/04/23 13:52:04;;;;;;;;;;;;;;;;;;5035173;28;19917;-24
2022/04/23 13:54:30;;;;;;;;;;;;;;;;;;5035483;28;19945;-23
2022/04/23 13:57:00;;;;;;;;;;;;;;;;;;5035226;28;19913;-25
2022/04/23 13:59:25;;;;;;;;;;;;;;;;;;5035520;28;19948;-22
2022/04/23 14:10:07;;;;;;;;;;;;;;;;;;5035120;28;19975;-22
2022/04/23 14:12:33;;;;;;;;;;;;;;;;;;5035213;28;19923;-22
2022/04/23 14:14:59;;;;;;;;;;;;;;;;;;5035604;28;20336;-26
2022/04/23 14:17:25;;;;;;;;;;;;;;;;;;5035578;28;20260;-23
2022/04/23 14:19:51;;;;;;;;;;;;;;;;;;5035238;28;19936;-23
2022/04/23 14:22:17;;;;;;;;;;;;;;;;;;5034890;28;19988;-21
2022/04/23 14:24:43;;;;;;;;;;;;;;;;;;5017513;28;19921;-22
2022/04/23 14:27:09;;;;;;;;;;;;;;;;;;5034907;28;19913;-23
2022/04/23 14:29:35;;;;;;;;;;;;;;;;;;5034910;28;19909;-24
2022/04/23 14:32:02;;;;;;;;;;;;;;;;;;5035088;28;19928;-23
2022/04/23 14:34:28;;;;;;;;;;;;;;;;;;5034836;28;19909;-22
2022/04/23 14:36:54;;;;;;;;;;;;;;;;;;5035033;28;19944;-22
2022/04/23 14:39:20;;;;;;;;;;;;;;;;;;5034805;28;19909;-22
2022/04/23 14:41:46;;;;;;;;;;;;;;;;;;5035354;28;19913;-23
2022/04/23 14:44:12;;;;;;;;;;;;;;;;;;5035175;28;19971;-23
2022/04/23 14:46:38;;;;;;;;;;;;;;;;;;5034781;28;19914;-25
2022/04/23 14:49:04;;;;;;;;;;;;;;;;;;5035559;28;19975;-22
2022/04/23 14:54:15;;;;;;;;;;;;;;;;;;5038588;28;20359;-22
2022/04/23 14:56:41;;;;;;;;;;;;;;;;;;5038445;28;19917;-25
2022/04/23 14:59:08;;;;;;;;;;;;;;;;;;5038696;28;19924;-22
2022/04/23 15:01:34;;;;;;;;;;;;;;;;;;5038646;28;20315;-23
2022/04/23 15:04:07;;;;;;;;;;;;;;;;;;5038337;28;19929;-20
2022/04/23 15:06:33;;;;;;;;;;;;;;;;;;5038623;28;19996;-22
2022/04/23 15:08:59;;;;;;;;;;;;;;;;;;5038508;28;19955;-25
2022/04/23 15:11:25;;;;;;;;;;;;;;;;;;5020808;28;20004;-24
2022/04/23 15:13:51;;;;;;;;;;;;;;;;;;5038096;28;19913;-22
2022/04/23 15:16:17;;;;;;;;;;;;;;;;;;5038141;28;19920;-23
2022/04/23 15:18:43;;;;;;;;;;;;;;;;;;5038329;28;19913;-24
2022/04/23 15:21:09;;;;;;;;;;;;;;;;;;5020639;28;19920;-23
2022/04/23 15:23:35;;;;;;;;;;;;;;;;;;5038052;28;20256;-26
2022/04/23 15:26:01;;;;;;;;;;;;;;;;;;5037956;28;19913;-22
2022/04/23 15:28:27;;;;;;;;;;;;;;;;;;5038111;28;20256;-20
2022/04/23 15:30:53;;;;;;;;;;;;;;;;;;5038076;28;19963;-21
2022/04/23 15:33:19;;;;;;;;;;;;;;;;;;5037962;28;20264;-21
2022/04/23 15:35:45;;;;;;;;;;;;;;;;;;5037981;28;19909;-20
2022/04/23 15:38:11;;;;;;;;;;;;;;;;;;5037668;28;19960;-21
2022/04/23 15:40:37;;;;;;;;;;;;;;;;;;5037671;28;20000;-22
2022/04/23 15:43:03;;;;;;;;;;;;;;;;;;5037483;28;19924;-22
2022/04/23 15:45:29;;;;;;;;;;;;;;;;;;5037757;28;20012;-22
2022/04/23 15:47:55;;;;;;;;;;;;;;;;;;5037717;28;19913;-21
2022/04/23 15:50:21;;;;;;;;;;;;;;;;;;5037702;28;19936;-22
2022/04/23 15:52:47;;;;;;;;;;;;;;;;;;5037890;28;19909;-26
2022/04/23 15:55:13;;;;;;;;;;;;;;;;;;5037625;28;19913;-21
2022/04/23 15:57:39;;;;;;;;;;;;;;;;;;5037315;28;20267;-21
2022/04/23 16:00:05;;;;;;;;;;;;;;;;;;5019632;28;19913;-20
2022/04/23 16:02:31;;;;;;;;;;;;;;;;;;5037532;28;19914;-21
2022/04/23 16:04:57;;;;;;;;;;;;;;;;;;5036912;28;19932;-21
2022/04/23 16:07:26;;;;;;;;;;;;;;;;;;5037689;28;19913;-21
2022/04/23 16:09:54;;;;;;;;;;;;;;;;;;5037062;28;19917;-22
2022/04/23 16:12:20;;;;;;;;;;;;;;;;;;5037281;28;19941;-22
2022/04/23 16:14:46;;;;;;;;;;;;;;;;;;5037007;28;19917;-21
2022/04/23 16:17:12;;;;;;;;;;;;;;;;;;5036876;28;19920;-21
2022/04/23 16:19:38;;;;;;;;;;;;;;;;;;5037237;28;19909;-20
2022/04/23 16:22:04;;;;;;;;;;;;;;;;;;5037273;28;20367;-23
2022/04/23 16:24:30;;;;;;;;;;;;;;;;;;5036793;28;20059;-21
2022/04/23 16:26:56;;;;;;;;;;;;;;;;;;5036763;28;19924;-21
2022/04/23 16:29:22;;;;;;;;;;;;;;;;;;5036698;28;19909;-20
2022/04/23 16:31:49;;;;;;;;;;;;;;;;;;5036866;28;19939;-21
2022/04/23 16:34:15;;;;;;;;;;;;;;;;;;5036670;28;20408;-25
2022/04/23 16:47:40;;;;;;;;;;;;;;;;;;5036657;28;19924;-26
2022/04/23 16:50:06;;;;;;;;;;;;;;;;;;5036600;28;19909;-21
2022/04/23 16:52:32;;;;;;;;;;;;;;;;;;5036201;28;19913;-23
2022/04/23 16:54:58;;;;;;;;;;;;;;;;;;5019099;28;20019;-24
2022/04/23 16:57:24;;;;;;;;;;;;;;;;;;5036411;28;20315;-21
2022/04/23 16:59:50;;;;;;;;;;;;;;;;;;5036119;28;19935;-21
2022/04/23 17:02:16;;;;;;;;;;;;;;;;;;5036208;28;19936;-21
2022/04/23 17:04:42;;;;;;;;;;;;;;;;;;5035797;28;20323;-21
2022/04/23 17:07:08;;;;;;;;;;;;;;;;;;5035907;28;19944;-22
2022/04/23 17:09:34;;;;;;;;;;;;;;;;;;5035928;28;19921;-21
2022/04/23 17:12:00;;;;;;;;;;;;;;;;;;5035241;28;19950;-22
2022/04/23 17:14:26;;;;;;;;;;;;;;;;;;5035827;28;19910;-21
2022/04/23 17:16:52;;;;;;;;;;;;;;;;;;5035813;28;19913;-22
2022/04/23 17:19:19;;;;;;;;;;;;;;;;;;5036349;28;20264;-21
2022/04/23 17:21:46;;;;;;;;;;;;;;;;;;5035624;28;19913;-24
2022/04/23 17:24:16;;;;;;;;;;;;;;;;;;5035575;28;20263;-23
2022/04/23 17:26:42;;;;;;;;;;;;;;;;;;5035866;28;19991;-23
2022/04/23 17:29:08;;;;;;;;;;;;;;;;;;5035846;28;19913;-21
2022/04/23 17:31:34;;;;;;;;;;;;;;;;;;5035618;28;20264;-22
2022/04/23 17:34:00;;;;;;;;;;;;;;;;;;5035526;28;20008;-22
2022/04/23 17:36:26;;;;;;;;;;;;;;;;;;5035492;28;20182;-24